Time;durP1;ratioP1;P1;durP2;ratioP2;P2;SDS_P1;SDS_P2;PMS_P1;PMS_P2;Temp;Humidity;BMP_temperature;BMP_pressure;BME280_temperature;BME280_humidity;BME280_pressure;Samples;Min_cycle;Max_cycle;Signal;HPM_P1;HPM_P2
2021/09/19 00:02:01;;;;;;;7.33;3.53;;;;;;;;;;10379443;28;20041;-66
2021/09/19 00:06:58;;;;;;;3.17;2.10;;;;;;;;;;10382777;28;20044;-66
2021/09/19 00:11:56;;;;;;;7.17;3.77;;;;;;;;;;10398422;28;20029;-65
2021/09/19 00:16:53;;;;;;;6.67;4.00;;;;;;;;;;10389100;28;20032;-65
2021/09/19 00:21:51;;;;;;;6.37;3.40;;;;;;;;;;10413500;28;20029;-67
2021/09/19 00:26:48;;;;;;;4.23;3.13;;;;;;;;;;10404504;28;20048;-66
2021/09/19 00:31:45;;;;;;;3.87;2.70;;;;;;;;;;10398462;28;20139;-66
2021/09/19 00:36:43;;;;;;;6.97;3.33;;;;;;;;;;10396150;28;20413;-64
2021/09/19 00:41:40;;;;;;;7.60;3.40;;;;;;;;;;10416256;28;20497;-65
2021/09/19 00:46:38;;;;;;;5.20;3.10;;;;;;;;;;10375855;28;20038;-66
2021/09/19 00:51:37;;;;;;;7.60;3.40;;;;;;;;;;10403561;28;20042;-67
2021/09/19 00:56:34;;;;;;;3.67;2.97;;;;;;;;;;10374339;28;20032;-66
2021/09/19 01:01:32;;;;;;;7.50;3.30;;;;;;;;;;10371609;28;20397;-67
2021/09/19 01:06:29;;;;;;;7.43;3.23;;;;;;;;;;10377389;28;20501;-65
2021/09/19 01:11:27;;;;;;;5.67;3.00;;;;;;;;;;10409475;28;20036;-67
2021/09/19 01:16:25;;;;;;;4.90;2.93;;;;;;;;;;10400110;28;20036;-67
2021/09/19 01:21:24;;;;;;;6.30;3.80;;;;;;;;;;10387786;28;20046;-66
2021/09/19 01:26:22;;;;;;;5.35;3.35;;;;;;;;;;10398382;28;20063;-67
2021/09/19 01:31:20;;;;;;;4.68;2.90;;;;;;;;;;10402924;28;20108;-67
2021/09/19 01:36:18;;;;;;;5.63;3.30;;;;;;;;;;10393140;28;20036;-67
2021/09/19 01:41:16;;;;;;;4.90;2.33;;;;;;;;;;10376568;28;20169;-67
2021/09/19 01:46:14;;;;;;;5.72;3.05;;;;;;;;;;10378749;28;20621;-67
2021/09/19 01:51:12;;;;;;;4.90;3.40;;;;;;;;;;10372390;28;20515;-67
2021/09/19 01:56:10;;;;;;;5.32;3.17;;;;;;;;;;10389036;28;20475;-66
2021/09/19 02:01:07;;;;;;;6.47;2.83;;;;;;;;;;10378985;28;20024;-66
2021/09/19 02:06:06;;;;;;;7.10;2.93;;;;;;;;;;10372778;28;20040;-66
2021/09/19 02:11:04;;;;;;;5.20;3.10;;;;;;;;;;10398227;28;20040;-66
2021/09/19 02:16:02;;;;;;;5.00;3.03;;;;;;;;;;10388764;28;20036;-66
2021/09/19 02:21:00;;;;;;;7.32;4.20;;;;;;;;;;10401458;28;20344;-65
2021/09/19 02:25:57;;;;;;;4.50;3.27;;;;;;;;;;10401504;28;20135;-67
2021/09/19 02:30:55;;;;;;;5.70;3.30;;;;;;;;;;10381224;28;20040;-66
2021/09/19 02:35:52;;;;;;;6.80;2.67;;;;;;;;;;10396077;28;20131;-66
2021/09/19 02:40:52;;;;;;;4.73;2.80;;;;;;;;;;10389150;28;20040;-66
2021/09/19 02:45:50;;;;;;;4.05;2.83;;;;;;;;;;10371336;28;20524;-66
2021/09/19 02:50:48;;;;;;;5.85;3.90;;;;;;;;;;10398159;28;20044;-67
2021/09/19 02:55:45;;;;;;;6.40;3.10;;;;;;;;;;10406575;28;20037;-66
2021/09/19 03:00:43;;;;;;;5.97;3.07;;;;;;;;;;10398238;28;20028;-66
2021/09/19 03:05:40;;;;;;;5.43;3.33;;;;;;;;;;10404249;28;20105;-66
2021/09/19 03:10:37;;;;;;;5.27;3.03;;;;;;;;;;10421062;28;20044;-66
2021/09/19 03:15:35;;;;;;;8.30;3.70;;;;;;;;;;10398438;28;20123;-68
2021/09/19 03:20:32;;;;;;;6.00;3.37;;;;;;;;;;10400042;28;20047;-64
2021/09/19 03:25:29;;;;;;;5.70;3.60;;;;;;;;;;10389770;28;20036;-66
2021/09/19 03:30:27;;;;;;;7.07;3.50;;;;;;;;;;10414438;28;20059;-67
2021/09/19 03:35:24;;;;;;;5.90;2.93;;;;;;;;;;10402353;28;20100;-66
2021/09/19 03:40:22;;;;;;;4.73;2.80;;;;;;;;;;10406220;28;20250;-67
2021/09/19 03:45:19;;;;;;;5.70;3.27;;;;;;;;;;10406591;28;20042;-66
2021/09/19 03:50:17;;;;;;;5.73;3.33;;;;;;;;;;10431318;28;20669;-65
2021/09/19 03:55:14;;;;;;;7.17;3.83;;;;;;;;;;10424675;28;20035;-66
2021/09/19 04:00:11;;;;;;;6.13;2.70;;;;;;;;;;10431426;28;20032;-66
2021/09/19 04:05:12;;;;;;;6.93;3.70;;;;;;;;;;10428347;28;20600;-67
2021/09/19 04:10:10;;;;;;;10.03;3.93;;;;;;;;;;10385012;28;20509;-67
2021/09/19 04:15:08;;;;;;;8.40;3.60;;;;;;;;;;10426707;28;20066;-67
2021/09/19 04:20:06;;;;;;;7.38;3.78;;;;;;;;;;10406668;28;20075;-67
2021/09/19 04:25:06;;;;;;;8.27;3.40;;;;;;;;;;10425388;28;20064;-67
2021/09/19 04:30:04;;;;;;;5.13;3.33;;;;;;;;;;10412226;28;20474;-66
2021/09/19 04:35:02;;;;;;;2.10;1.23;;;;;;;;;;10410399;28;20467;-66
2021/09/19 04:39:59;;;;;;;3.40;1.50;;;;;;;;;;10398611;28;20346;-67
2021/09/19 04:44:56;;;;;;;6.43;3.03;;;;;;;;;;10367984;28;20115;-68
2021/09/19 04:49:54;;;;;;;4.67;2.73;;;;;;;;;;10392964;28;20044;-66
2021/09/19 04:54:51;;;;;;;6.07;1.80;;;;;;;;;;10379045;28;20036;-65
2021/09/19 04:59:49;;;;;;;4.63;1.47;;;;;;;;;;10392679;28;20060;-68
2021/09/19 05:04:46;;;;;;;2.33;1.47;;;;;;;;;;10400803;28;20078;-68
2021/09/19 05:09:43;;;;;;;1.50;0.97;;;;;;;;;;10405305;28;20036;-65
2021/09/19 05:14:41;;;;;;;1.23;0.53;;;;;;;;;;10402441;28;20124;-67
2021/09/19 05:19:38;;;;;;;1.13;0.73;;;;;;;;;;10384675;28;20060;-63
2021/09/19 05:24:36;;;;;;;1.67;1.00;;;;;;;;;;10365591;28;20049;-64
2021/09/19 05:29:33;;;;;;;1.20;0.73;;;;;;;;;;10400451;28;20024;-64
2021/09/19 05:34:31;;;;;;;1.60;0.63;;;;;;;;;;10390169;28;20204;-65
2021/09/19 05:39:29;;;;;;;0.87;0.47;;;;;;;;;;10389577;28;20456;-65
2021/09/19 05:44:26;;;;;;;0.63;0.63;;;;;;;;;;10394303;28;20137;-67
2021/09/19 05:49:23;;;;;;;0.27;0.27;;;;;;;;;;10376628;28;20441;-64
2021/09/19 05:54:21;;;;;;;1.17;0.60;;;;;;;;;;10382805;28;20028;-64
2021/09/19 05:59:18;;;;;;;0.73;0.67;;;;;;;;;;10384390;28;20040;-65
2021/09/19 06:04:16;;;;;;;1.40;1.30;;;;;;;;;;10381687;28;20062;-65
2021/09/19 06:09:13;;;;;;;1.17;1.07;;;;;;;;;;10400943;28;20438;-65
2021/09/19 06:14:10;;;;;;;1.10;1.00;;;;;;;;;;10396791;28;20025;-65
2021/09/19 06:19:08;;;;;;;2.70;1.10;;;;;;;;;;10399474;28;20024;-65
2021/09/19 06:24:05;;;;;;;3.30;1.47;;;;;;;;;;10395766;28;20045;-66
2021/09/19 06:29:03;;;;;;;2.37;1.57;;;;;;;;;;10390958;28;20048;-66
2021/09/19 06:34:00;;;;;;;3.43;2.10;;;;;;;;;;10394962;28;20027;-66
2021/09/19 06:38:57;;;;;;;2.13;1.30;;;;;;;;;;10387406;28;20042;-66
2021/09/19 06:43:55;;;;;;;5.27;1.60;;;;;;;;;;10398243;28;20042;-65
2021/09/19 06:48:52;;;;;;;2.30;1.17;;;;;;;;;;10371087;28;20075;-65
2021/09/19 06:53:50;;;;;;;4.07;2.00;;;;;;;;;;10390908;28;20190;-67
2021/09/19 06:58:48;;;;;;;3.03;1.87;;;;;;;;;;10389278;28;20371;-64
2021/09/19 07:03:45;;;;;;;2.42;1.27;;;;;;;;;;10400279;28;20056;-64
2021/09/19 07:08:43;;;;;;;2.97;1.73;;;;;;;;;;10406737;28;20068;-66
2021/09/19 07:13:41;;;;;;;6.45;2.47;;;;;;;;;;10375959;28;20113;-68
2021/09/19 07:18:41;;;;;;;4.43;2.07;;;;;;;;;;10386490;28;20141;-66
2021/09/19 07:23:38;;;;;;;4.75;1.98;;;;;;;;;;10402313;28;20036;-66
2021/09/19 07:28:36;;;;;;;2.67;1.80;;;;;;;;;;10409284;28;20497;-64
2021/09/19 07:33:34;;;;;;;3.93;1.80;;;;;;;;;;10413913;28;20036;-66
2021/09/19 07:38:32;;;;;;;5.50;2.27;;;;;;;;;;10400232;28;20040;-65
2021/09/19 07:43:30;;;;;;;3.58;2.45;;;;;;;;;;10401346;28;20037;-66
2021/09/19 07:48:27;;;;;;;3.27;1.80;;;;;;;;;;10399981;28;20876;-67
2021/09/19 07:53:25;;;;;;;3.97;1.40;;;;;;;;;;10397590;28;20028;-67
2021/09/19 07:58:22;;;;;;;2.03;1.30;;;;;;;;;;10408403;28;20493;-67
2021/09/19 08:03:20;;;;;;;3.83;2.03;;;;;;;;;;10394312;28;20028;-67
2021/09/19 08:08:17;;;;;;;5.40;2.57;;;;;;;;;;10400463;28;20031;-67
2021/09/19 08:13:15;;;;;;;2.57;1.23;;;;;;;;;;10418274;28;21207;-66
2021/09/19 08:18:12;;;;;;;2.30;1.47;;;;;;;;;;10396924;28;20460;-66
2021/09/19 08:23:10;;;;;;;3.20;1.83;;;;;;;;;;10382987;28;20119;-66
2021/09/19 08:28:07;;;;;;;2.77;1.57;;;;;;;;;;10381807;28;20039;-66
2021/09/19 08:33:05;;;;;;;2.60;1.47;;;;;;;;;;10406795;28;20497;-67
2021/09/19 08:38:02;;;;;;;2.00;1.30;;;;;;;;;;10387044;28;20106;-67
2021/09/19 08:43:00;;;;;;;3.50;2.30;;;;;;;;;;10383289;28;20448;-68
2021/09/19 08:47:57;;;;;;;6.57;1.60;;;;;;;;;;10396101;28;20044;-64
2021/09/19 08:52:55;;;;;;;2.87;1.73;;;;;;;;;;10368997;28;20040;-68
2021/09/19 08:57:52;;;;;;;2.10;1.40;;;;;;;;;;10407043;28;20113;-65
2021/09/19 09:02:51;;;;;;;1.33;0.90;;;;;;;;;;10390026;28;20047;-64
2021/09/19 09:07:58;;;;;;;2.78;1.38;;;;;;;;;;10409624;28;20601;-66
2021/09/19 09:13:03;;;;;;;3.03;1.60;;;;;;;;;;10380941;28;20505;-68
2021/09/19 09:18:04;;;;;;;2.70;1.67;;;;;;;;;;10367184;28;20040;-67
2021/09/19 09:23:01;;;;;;;2.70;1.20;;;;;;;;;;10396866;28;20044;-64
2021/09/19 09:27:59;;;;;;;2.33;1.00;;;;;;;;;;10387490;28;20040;-66
2021/09/19 09:33:01;;;;;;;2.43;1.83;;;;;;;;;;10388008;28;20044;-67
2021/09/19 09:37:59;;;;;;;2.15;1.08;;;;;;;;;;10375869;28;20043;-66
2021/09/19 09:43:00;;;;;;;2.17;1.17;;;;;;;;;;10377983;28;20036;-65
2021/09/19 09:47:58;;;;;;;3.47;1.77;;;;;;;;;;10386275;28;20230;-65
2021/09/19 09:53:12;;;;;;;0.95;0.82;;;;;;;;;;10368752;28;20257;-67
2021/09/19 09:58:11;;;;;;;1.48;1.00;;;;;;;;;;10362843;28;20097;-68
2021/09/19 10:03:08;;;;;;;1.17;1.08;;;;;;;;;;10368996;28;20044;-68
2021/09/19 10:08:06;;;;;;;0.90;0.80;;;;;;;;;;10375818;28;20532;-65
2021/09/19 10:13:03;;;;;;;1.47;1.03;;;;;;;;;;10364764;28;20036;-66
2021/09/19 10:18:01;;;;;;;0.93;0.73;;;;;;;;;;10355596;28;20047;-63
2021/09/19 10:23:04;;;;;;;2.40;0.93;;;;;;;;;;10363789;28;20062;-64
2021/09/19 10:28:18;;;;;;;2.78;1.45;;;;;;;;;;10371592;28;20582;-69
2021/09/19 10:33:35;;;;;;;1.45;1.00;;;;;;;;;;10382743;28;20116;-63
2021/09/19 10:38:35;;;;;;;0.50;0.50;;;;;;;;;;10356413;28;20487;-66
2021/09/19 10:43:47;;;;;;;3.28;1.38;;;;;;;;;;10361538;28;20024;-66
2021/09/19 10:48:45;;;;;;;5.90;2.95;;;;;;;;;;10373208;28;20460;-68
2021/09/19 10:53:49;;;;;;;3.90;2.03;;;;;;;;;;10375374;28;20043;-67
2021/09/19 10:58:47;;;;;;;4.50;2.00;;;;;;;;;;10366129;28;20082;-67
2021/09/19 11:04:08;;;;;;;5.30;2.00;;;;;;;;;;10375931;28;20071;-66
2021/09/19 11:09:24;;;;;;;3.45;1.65;;;;;;;;;;10356410;28;20040;-66
2021/09/19 11:14:21;;;;;;;1.83;1.30;;;;;;;;;;10379025;28;20036;-65
2021/09/19 11:19:21;;;;;;;5.97;1.40;;;;;;;;;;10373235;28;20033;-66
2021/09/19 11:24:19;;;;;;;2.28;1.35;;;;;;;;;;10360430;28;20401;-66
2021/09/19 11:29:24;;;;;;;4.82;0.80;;;;;;;;;;10357866;28;20041;-67
2021/09/19 11:34:24;;;;;;;1.40;0.90;;;;;;;;;;10381987;28;20114;-66
2021/09/19 11:39:21;;;;;;;0.82;0.50;;;;;;;;;;10388237;28;20103;-65
2021/09/19 11:44:19;;;;;;;1.33;0.80;;;;;;;;;;10365531;28;20033;-67
2021/09/19 11:49:18;;;;;;;2.23;1.37;;;;;;;;;;10370347;28;20150;-68
2021/09/19 11:54:16;;;;;;;1.42;0.70;;;;;;;;;;10353592;28;20037;-67
2021/09/19 11:59:15;;;;;;;0.38;0.38;;;;;;;;;;10378030;28;20235;-67
2021/09/19 12:04:13;;;;;;;0.98;0.68;;;;;;;;;;10369059;28;20396;-68
2021/09/19 12:09:16;;;;;;;1.23;1.08;;;;;;;;;;10378917;28;20036;-66
2021/09/19 12:14:19;;;;;;;0.85;0.70;;;;;;;;;;10383944;28;20028;-69
2021/09/19 12:19:17;;;;;;;1.55;1.45;;;;;;;;;;10383456;28;20975;-66
2021/09/19 12:24:15;;;;;;;3.83;2.03;;;;;;;;;;10390385;28;20039;-67
2021/09/19 12:29:16;;;;;;;19.83;5.57;;;;;;;;;;10376182;28;20572;-66
2021/09/19 12:34:18;;;;;;;12.35;5.63;;;;;;;;;;10360819;28;20047;-66
2021/09/19 12:39:23;;;;;;;19.55;5.13;;;;;;;;;;10369612;28;20139;-65
2021/09/19 12:44:23;;;;;;;12.32;3.03;;;;;;;;;;10402920;28;20180;-66
2021/09/19 12:49:25;;;;;;;12.93;3.42;;;;;;;;;;10353307;28;20315;-65
2021/09/19 12:54:23;;;;;;;5.97;1.60;;;;;;;;;;10353270;28;20036;-66
2021/09/19 12:59:21;;;;;;;7.22;3.15;;;;;;;;;;10358627;28;20040;-65
2021/09/19 13:04:18;;;;;;;5.10;1.85;;;;;;;;;;10391964;28;20028;-65
2021/09/19 13:09:15;;;;;;;7.93;1.63;;;;;;;;;;10393188;28;20388;-67
2021/09/19 13:14:13;;;;;;;6.67;2.77;;;;;;;;;;10396789;28;20151;-66
2021/09/19 13:19:11;;;;;;;4.90;1.27;;;;;;;;;;10381153;28;20282;-66
2021/09/19 13:24:09;;;;;;;8.48;1.88;;;;;;;;;;10404166;28;20040;-67
2021/09/19 13:29:07;;;;;;;;;;;;;;;;;;10393212;28;20028;-65
2021/09/19 13:34:04;;;;;;;3.08;2.05;;;;;;;;;;10375854;28;19920;-65
2021/09/19 13:39:02;;;;;;;1.83;1.23;;;;;;;;;;10396565;28;20074;-67
2021/09/19 13:43:59;;;;;;;;;;;;;;;;;;10400158;28;20134;-67
2021/09/19 13:48:57;;;;;;;3.50;0.87;;;;;;;;;;10389184;28;19972;-66
2021/09/19 13:53:55;;;;;;;4.07;1.33;;;;;;;;;;10404680;28;20282;-65
2021/09/19 13:58:52;;;;;;;7.07;1.90;;;;;;;;;;10380272;28;20069;-65
2021/09/19 14:03:50;;;;;;;0.87;0.80;;;;;;;;;;10396131;28;20028;-67
2021/09/19 14:08:47;;;;;;;2.30;1.50;;;;;;;;;;10366244;28;20281;-66
2021/09/19 14:13:45;;;;;;;1.92;1.15;;;;;;;;;;10395794;28;20025;-64
2021/09/19 14:18:42;;;;;;;1.57;0.77;;;;;;;;;;10389558;28;20069;-64
2021/09/19 14:23:39;;;;;;;1.33;0.50;;;;;;;;;;10390074;28;20036;-64
2021/09/19 14:28:37;;;;;;;2.33;1.00;;;;;;;;;;10371123;28;20036;-66
2021/09/19 14:33:34;;;;;;;0.63;0.60;;;;;;;;;;10393799;28;20067;-64
2021/09/19 14:38:32;;;;;;;5.30;0.70;;;;;;;;;;10392902;28;20028;-65
2021/09/19 14:43:37;;;;;;;4.10;1.10;;;;;;;;;;10361674;28;20029;-65
2021/09/19 14:48:34;;;;;;;1.42;0.73;;;;;;;;;;10385339;28;20044;-64
2021/09/19 14:53:32;;;;;;;0.67;0.57;;;;;;;;;;10371542;28;20020;-67
2021/09/19 14:58:31;;;;;;;0.27;0.20;;;;;;;;;;10391239;28;20282;-65
2021/09/19 15:03:28;;;;;;;2.75;0.88;;;;;;;;;;10376735;28;20279;-66
2021/09/19 15:08:27;;;;;;;1.60;1.23;;;;;;;;;;10394355;28;20142;-65
2021/09/19 15:13:29;;;;;;;2.58;1.40;;;;;;;;;;10393459;28;20394;-62
2021/09/19 15:18:27;;;;;;;;;;;;;;;;;;10399219;28;20047;-66
2021/09/19 15:23:25;;;;;;;1.10;0.60;;;;;;;;;;10396297;28;19998;-64
2021/09/19 15:28:25;;;;;;;2.42;0.85;;;;;;;;;;10408658;28;20048;-63
2021/09/19 15:33:23;;;;;;;0.63;0.50;;;;;;;;;;10345921;28;20044;-64
2021/09/19 15:38:21;;;;;;;3.88;0.85;;;;;;;;;;10407391;28;20517;-65
2021/09/19 15:43:20;;;;;;;0.75;0.50;;;;;;;;;;10406937;28;20043;-65
2021/09/19 15:48:17;;;;;;;0.20;0.20;;;;;;;;;;10412573;28;20050;-65
2021/09/19 15:53:14;;;;;;;0.67;0.60;;;;;;;;;;10403537;28;20055;-62
2021/09/19 15:58:12;;;;;;;1.43;0.70;;;;;;;;;;10372445;28;20131;-64
2021/09/19 16:03:09;;;;;;;1.10;0.60;;;;;;;;;;10400358;28;20070;-69
2021/09/19 16:08:07;;;;;;;0.82;0.75;;;;;;;;;;10403002;28;20523;-62
2021/09/19 16:13:04;;;;;;;0.50;0.50;;;;;;;;;;10380091;28;20123;-66
2021/09/19 16:18:02;;;;;;;0.97;0.73;;;;;;;;;;10378099;28;20044;-66
2021/09/19 16:23:02;;;;;;;1.83;0.63;;;;;;;;;;10401152;28;20050;-66
2021/09/19 16:28:00;;;;;;;0.20;0.20;;;;;;;;;;10388249;28;20043;-65
2021/09/19 16:32:57;;;;;;;1.10;0.60;;;;;;;;;;10368501;28;20044;-65
2021/09/19 16:37:55;;;;;;;0.30;0.30;;;;;;;;;;10389315;28;20106;-65
2021/09/19 16:42:52;;;;;;;0.83;0.70;;;;;;;;;;10375826;28;20432;-66
2021/09/19 16:47:50;;;;;;;0.85;0.50;;;;;;;;;;10368550;28;20532;-66
2021/09/19 16:52:48;;;;;;;3.17;0.75;;;;;;;;;;10363499;28;20501;-66
2021/09/19 16:57:45;;;;;;;0.60;0.50;;;;;;;;;;10391755;28;20417;-66
2021/09/19 17:02:43;;;;;;;1.07;0.57;;;;;;;;;;10380834;28;20028;-66
2021/09/19 17:07:40;;;;;;;2.70;0.98;;;;;;;;;;10377228;28;20782;-64
2021/09/19 17:12:38;;;;;;;0.47;0.43;;;;;;;;;;10391555;28;20040;-66
2021/09/19 17:17:35;;;;;;;0.83;0.57;;;;;;;;;;10392316;28;20036;-67
2021/09/19 17:22:33;;;;;;;0.93;0.63;;;;;;;;;;10374614;28;20271;-65
2021/09/19 17:27:31;;;;;;;0.47;0.47;;;;;;;;;;10398215;28;20247;-65
2021/09/19 17:32:28;;;;;;;0.93;0.77;;;;;;;;;;10388459;28;20044;-66
2021/09/19 17:37:26;;;;;;;0.80;0.73;;;;;;;;;;10371286;28;20413;-63
2021/09/19 17:42:23;;;;;;;1.10;0.87;;;;;;;;;;10378727;28;20036;-67
2021/09/19 17:47:21;;;;;;;;;;;;;;;;;;10349692;28;20036;-67
2021/09/19 17:52:19;;;;;;;2.40;1.25;;;;;;;;;;10382142;28;19920;-67
2021/09/19 17:57:16;;;;;;;2.20;0.77;;;;;;;;;;10369148;28;20024;-67
2021/09/19 18:02:13;;;;;;;1.60;1.10;;;;;;;;;;10388197;28;20040;-68
2021/09/19 18:07:11;;;;;;;4.40;1.23;;;;;;;;;;10372810;28;20035;-66
2021/09/19 18:12:09;;;;;;;1.07;0.90;;;;;;;;;;10383547;28;20405;-66
2021/09/19 18:17:07;;;;;;;5.18;0.80;;;;;;;;;;10359957;28;20529;-63
2021/09/19 18:22:04;;;;;;;2.33;1.10;;;;;;;;;;10349860;28;20034;-62
2021/09/19 18:27:02;;;;;;;2.75;0.95;;;;;;;;;;10357697;28;20032;-65
2021/09/19 18:32:00;;;;;;;1.38;1.05;;;;;;;;;;10345310;28;20600;-64
2021/09/19 18:36:59;;;;;;;1.63;0.85;;;;;;;;;;10359380;28;20111;-65
2021/09/19 18:41:58;;;;;;;0.98;0.70;;;;;;;;;;10391986;28;20095;-65
2021/09/19 18:46:55;;;;;;;1.33;1.10;;;;;;;;;;10366554;28;20134;-62
2021/09/19 18:51:53;;;;;;;1.83;1.10;;;;;;;;;;10373722;28;20127;-62
2021/09/19 18:56:51;;;;;;;1.10;1.00;;;;;;;;;;10397004;28;20027;-65
2021/09/19 19:01:48;;;;;;;1.27;0.97;;;;;;;;;;10392451;28;20027;-66
2021/09/19 19:06:46;;;;;;;3.13;0.90;;;;;;;;;;10364779;28;20084;-65
2021/09/19 19:11:43;;;;;;;2.93;0.80;;;;;;;;;;10384548;28;20378;-65
2021/09/19 19:16:40;;;;;;;0.77;0.70;;;;;;;;;;10390657;28;20024;-65
2021/09/19 19:21:38;;;;;;;1.87;1.27;;;;;;;;;;10397305;28;20024;-65
2021/09/19 19:26:39;;;;;;;2.30;0.80;;;;;;;;;;10385970;28;20409;-67
2021/09/19 19:31:37;;;;;;;2.85;1.10;;;;;;;;;;10353442;28;20038;-64
2021/09/19 19:36:35;;;;;;;1.50;0.77;;;;;;;;;;10389680;28;20029;-66
2021/09/19 19:41:32;;;;;;;1.48;1.00;;;;;;;;;;10376599;28;20138;-66
2021/09/19 19:46:29;;;;;;;1.07;0.70;;;;;;;;;;10397026;28;20044;-66
2021/09/19 19:51:27;;;;;;;1.93;1.00;;;;;;;;;;10373419;28;20081;-65
2021/09/19 19:56:24;;;;;;;0.80;0.60;;;;;;;;;;10369666;28;20666;-65
2021/09/19 20:01:22;;;;;;;1.17;0.87;;;;;;;;;;10373696;28;20445;-65
2021/09/19 20:06:19;;;;;;;1.33;1.00;;;;;;;;;;10385864;28;20075;-61
2021/09/19 20:11:17;;;;;;;3.00;1.20;;;;;;;;;;10367943;28;20043;-63
2021/09/19 20:16:14;;;;;;;1.93;0.93;;;;;;;;;;10367698;28;20048;-63
2021/09/19 20:21:12;;;;;;;2.10;0.97;;;;;;;;;;10384203;28;20377;-68
2021/09/19 20:26:12;;;;;;;5.38;2.72;;;;;;;;;;10369264;28;20039;-66
2021/09/19 20:31:10;;;;;;;3.80;2.60;;;;;;;;;;10386448;28;20515;-60
2021/09/19 20:36:07;;;;;;;10.17;2.30;;;;;;;;;;10365637;28;20293;-65
2021/09/19 20:41:05;;;;;;;5.13;2.47;;;;;;;;;;10384985;28;20043;-65
2021/09/19 20:46:03;;;;;;;7.82;2.67;;;;;;;;;;10367814;28;20040;-61
2021/09/19 20:51:00;;;;;;;5.07;2.23;;;;;;;;;;10365605;28;20040;-63
2021/09/19 20:55:58;;;;;;;6.27;2.70;;;;;;;;;;10400147;28;20156;-63
2021/09/19 21:00:55;;;;;;;7.07;3.27;;;;;;;;;;10397710;28;20040;-63
2021/09/19 21:05:53;;;;;;;2.72;1.67;;;;;;;;;;10371361;28;20036;-64
2021/09/19 21:10:50;;;;;;;3.63;2.47;;;;;;;;;;10380878;28;20086;-60
2021/09/19 21:15:48;;;;;;;2.77;1.57;;;;;;;;;;10371010;28;20024;-63
2021/09/19 21:20:46;;;;;;;3.07;1.53;;;;;;;;;;10398424;28;20040;-60
2021/09/19 21:25:43;;;;;;;4.20;0.90;;;;;;;;;;10390422;28;20472;-60
2021/09/19 21:30:40;;;;;;;1.00;0.57;;;;;;;;;;10364391;28;20032;-62
2021/09/19 21:35:38;;;;;;;1.10;0.83;;;;;;;;;;10360625;28;20044;-61
2021/09/19 21:40:36;;;;;;;0.50;0.50;;;;;;;;;;10399559;28;20122;-61
2021/09/19 21:45:33;;;;;;;1.03;0.60;;;;;;;;;;10370115;28;20033;-63
2021/09/19 21:50:31;;;;;;;3.70;1.27;;;;;;;;;;10380194;28;20055;-61
2021/09/19 21:55:29;;;;;;;2.30;1.03;;;;;;;;;;10383329;28;20508;-60
2021/09/19 22:00:35;;;;;;;1.00;0.90;;;;;;;;;;10360442;28;20623;-58
2021/09/19 22:05:33;;;;;;;1.30;0.40;;;;;;;;;;10375319;28;20039;-63
2021/09/19 22:10:31;;;;;;;1.00;0.73;;;;;;;;;;10383462;28;20036;-65
2021/09/19 22:15:29;;;;;;;0.57;0.57;;;;;;;;;;10378867;28;20162;-65
2021/09/19 22:20:27;;;;;;;3.88;0.85;;;;;;;;;;10403423;28;20032;-66
2021/09/19 22:25:25;;;;;;;2.30;1.67;;;;;;;;;;10375110;28;20037;-60
2021/09/19 22:30:23;;;;;;;0.50;0.40;;;;;;;;;;10390178;28;20742;-60
2021/09/19 22:35:21;;;;;;;3.85;0.73;;;;;;;;;;10400944;28;20497;-62
2021/09/19 22:40:18;;;;;;;1.93;1.30;;;;;;;;;;10404892;28;20032;-60
2021/09/19 22:45:16;;;;;;;1.27;1.17;;;;;;;;;;10390153;28;20040;-61
2021/09/19 22:50:13;;;;;;;2.53;0.93;;;;;;;;;;10379018;28;20036;-58
2021/09/19 22:55:11;;;;;;;1.57;0.70;;;;;;;;;;10390061;28;20285;-62
2021/09/19 23:00:10;;;;;;;1.10;0.73;;;;;;;;;;10392921;28;20041;-66
2021/09/19 23:05:09;;;;;;;1.38;0.82;;;;;;;;;;10366842;28;20031;-61
2021/09/19 23:10:06;;;;;;;0.77;0.73;;;;;;;;;;10354663;28;20050;-62
2021/09/19 23:15:05;;;;;;;0.73;0.63;;;;;;;;;;10390718;28;20488;-63
2021/09/19 23:20:03;;;;;;;0.80;0.50;;;;;;;;;;10385355;28;20285;-64
2021/09/19 23:25:01;;;;;;;1.35;1.23;;;;;;;;;;10382516;28;20048;-60
2021/09/19 23:29:59;;;;;;;1.40;1.13;;;;;;;;;;10375771;28;20478;-61
2021/09/19 23:34:56;;;;;;;3.40;1.33;;;;;;;;;;10361584;28;20371;-62
2021/09/19 23:39:53;;;;;;;1.60;0.80;;;;;;;;;;10368736;28;20040;-62
2021/09/19 23:44:52;;;;;;;2.83;1.03;;;;;;;;;;10406881;28;20036;-65
2021/09/19 23:49:49;;;;;;;;;;;;;;;;;;10362743;28;20459;-62
2021/09/19 23:54:47;;;;;;;3.13;1.30;;;;;;;;;;10353438;28;19996;-60
2021/09/19 23:59:44;;;;;;;0.60;0.60;;;;;;;;;;10371653;28;20671;-64
